Time;durP1;ratioP1;P1;durP2;ratioP2;P2;SDS_P1;SDS_P2;PMS_P1;PMS_P2;Temp;Humidity;BMP_temperature;BMP_pressure;BME280_temperature;BME280_humidity;BME280_pressure;Samples;Min_cycle;Max_cycle;Signal;HPM_P1;HPM_P2
2022/10/20 00:02:25;;;;;;;;;;;7.10;99.90;;;;;;5039652;28;20020;-86
2022/10/20 00:04:50;;;;;;;;;;;7.10;99.90;;;;;;5038049;28;20333;-86
2022/10/20 00:07:16;;;;;;;;;;;7.00;99.90;;;;;;5056387;28;19924;-85
2022/10/20 00:09:42;;;;;;;;;;;7.00;99.90;;;;;;5056852;28;19946;-86
2022/10/20 00:12:07;;;;;;;;;;;7.00;99.90;;;;;;5073972;28;19953;-86
2022/10/20 00:14:33;;;;;;;;;;;8.00;99.90;;;;;;5074442;28;19924;-86
2022/10/20 00:17:00;;;;;;;;;;;7.00;99.90;;;;;;5073376;28;20003;-87
2022/10/20 00:19:26;;;;;;;;;;;7.00;99.90;;;;;;5033509;28;19932;-87
2022/10/20 00:21:52;;;;;;;;;;;7.00;99.90;;;;;;5057691;28;20000;-86
2022/10/20 00:24:20;;;;;;;;;;;7.10;99.90;;;;;;5056595;28;20350;-86
2022/10/20 00:26:46;;;;;;;;;;;7.00;99.90;;;;;;5040378;28;20118;-86
2022/10/20 00:29:11;;;;;;;;;;;7.70;99.90;;;;;;5057804;28;19964;-86
2022/10/20 00:31:37;;;;;;;;;;;8.40;99.90;;;;;;5036550;28;19963;-86
2022/10/20 00:34:02;;;;;;;;;;;7.70;99.90;;;;;;5074221;28;19924;-86
2022/10/20 00:36:28;;;;;;;;;;;7.00;99.90;;;;;;5077688;28;19930;-86
2022/10/20 00:39:00;;;;;;;;;;;8.20;99.90;;;;;;5057106;28;19932;-86
2022/10/20 00:41:26;;;;;;;;;;;6.80;99.90;;;;;;5055869;28;19924;-86
2022/10/20 00:43:52;;;;;;;;;;;8.10;99.90;;;;;;5061214;28;20006;-86
2022/10/20 00:46:37;;;;;;;;;;;6.80;99.90;;;;;;5072190;28;20078;-86
2022/10/20 00:49:32;;;;;;;;;;;6.80;99.90;;;;;;5077769;28;19969;-86
2022/10/20 00:51:58;;;;;;;;;;;6.70;99.90;;;;;;5043646;28;19931;-86
2022/10/20 00:54:25;;;;;;;;;;;8.40;99.90;;;;;;5060334;28;19935;-86
2022/10/20 00:56:51;;;;;;;;;;;6.70;99.90;;;;;;5077437;28;20367;-86
2022/10/20 00:59:18;;;;;;;;;;;6.80;99.90;;;;;;5057606;28;19955;-86
2022/10/20 01:01:44;;;;;;;;;;;6.90;99.90;;;;;;5060027;28;19935;-86
2022/10/20 01:04:10;;;;;;;;;;;8.00;99.90;;;;;;5043646;28;19927;-86
2022/10/20 01:06:36;;;;;;;;;;;6.60;99.90;;;;;;5044412;28;19924;-85
2022/10/20 01:09:02;;;;;;;;;;;7.20;99.90;;;;;;5077607;28;19975;-86
2022/10/20 01:12:03;;;;;;;;;;;6.50;99.90;;;;;;5060094;28;19924;-86
2022/10/20 01:14:28;;;;;;;;;;;6.50;99.90;;;;;;4980667;28;19930;-86
2022/10/20 01:17:07;;;;;;;;;;;6.50;99.90;;;;;;5059686;28;19928;-86
2022/10/20 01:19:33;;;;;;;;;;;8.00;99.90;;;;;;5077109;28;19924;-86
2022/10/20 01:22:10;;;;;;;;;;;7.20;99.90;;;;;;5058443;28;20398;-85
2022/10/20 01:24:38;;;;;;;;;;;6.50;99.90;;;;;;5059870;28;20360;-85
2022/10/20 01:27:19;;;;;;;;;;;6.40;99.90;;;;;;5059571;28;19925;-86
2022/10/20 01:29:58;;;;;;;;;;;6.40;99.90;;;;;;5068294;28;19936;-85
2022/10/20 01:32:31;;;;;;;;;;;6.40;99.90;;;;;;5067414;28;19938;-86
2022/10/20 01:35:06;;;;;;;;;;;6.40;99.90;;;;;;5060608;28;19924;-85
2022/10/20 01:37:46;;;;;;;;;;;6.40;99.90;;;;;;5071903;28;19978;-86
2022/10/20 01:40:19;;;;;;;;;;;6.30;99.90;;;;;;5077270;28;19924;-86
2022/10/20 01:42:46;;;;;;;;;;;6.30;99.90;;;;;;5058918;28;20002;-86
2022/10/20 01:45:13;;;;;;;;;;;7.20;99.90;;;;;;5071818;28;19947;-86
2022/10/20 01:47:39;;;;;;;;;;;6.30;99.90;;;;;;5075081;28;19960;-86
2022/10/20 01:50:06;;;;;;;;;;;6.60;99.90;;;;;;5057371;28;19925;-85
2022/10/20 01:52:31;;;;;;;;;;;6.30;99.90;;;;;;5076602;28;20318;-86
2022/10/20 01:54:57;;;;;;;;;;;6.30;99.90;;;;;;5058213;28;19950;-86
2022/10/20 01:57:29;;;;;;;;;;;6.20;99.90;;;;;;5043240;28;19924;-87
2022/10/20 02:00:00;;;;;;;;;;;6.20;99.90;;;;;;5057283;28;19928;-86
2022/10/20 02:02:41;;;;;;;;;;;6.20;99.90;;;;;;5058736;28;19928;-87
2022/10/20 02:05:06;;;;;;;;;;;6.20;99.90;;;;;;5076839;28;19924;-86
2022/10/20 02:07:32;;;;;;;;;;;6.20;99.90;;;;;;5059780;28;20307;-86
2022/10/20 02:10:18;;;;;;;;;;;6.20;99.90;;;;;;5076546;28;20236;-85
2022/10/20 02:12:46;;;;;;;;;;;6.20;99.90;;;;;;5075485;28;19947;-86
2022/10/20 02:15:13;;;;;;;;;;;6.40;99.90;;;;;;5075812;28;20473;-86
2022/10/20 02:17:39;;;;;;;;;;;6.20;99.90;;;;;;5058341;28;19930;-85
2022/10/20 02:20:06;;;;;;;;;;;6.10;99.90;;;;;;5059823;28;19932;-86
2022/10/20 02:22:31;;;;;;;;;;;6.10;99.90;;;;;;5059055;28;20027;-86
2022/10/20 02:24:58;;;;;;;;;;;6.10;99.90;;;;;;5041389;28;19971;-86
2022/10/20 02:27:26;;;;;;;;;;;6.10;99.90;;;;;;5059415;28;19924;-87
2022/10/20 02:30:00;;;;;;;;;;;6.10;99.90;;;;;;5075870;28;19924;-86
2022/10/20 02:32:28;;;;;;;;;;;6.10;99.90;;;;;;5074853;28;19931;-86
2022/10/20 02:34:53;;;;;;;;;;;7.20;99.90;;;;;;5075517;28;19936;-86
2022/10/20 02:37:19;;;;;;;;;;;6.00;99.90;;;;;;5059230;28;19928;-87
2022/10/20 02:39:45;;;;;;;;;;;6.00;99.90;;;;;;5059264;28;20380;-87
2022/10/20 02:42:11;;;;;;;;;;;6.00;99.90;;;;;;5074645;28;20364;-87
2022/10/20 02:44:37;;;;;;;;;;;6.60;99.90;;;;;;5072281;28;19941;-86
2022/10/20 02:47:03;;;;;;;;;;;6.00;99.90;;;;;;5066468;28;19924;-86
2022/10/20 02:49:28;;;;;;;;;;;7.00;99.90;;;;;;5075322;28;19924;-87
2022/10/20 02:51:54;;;;;;;;;;;6.00;99.90;;;;;;5058726;28;19928;-86
2022/10/20 02:54:19;;;;;;;;;;;6.20;99.90;;;;;;5055704;28;19928;-87
2022/10/20 02:56:45;;;;;;;;;;;6.00;99.90;;;;;;5075065;28;19993;-87
2022/10/20 02:59:11;;;;;;;;;;;6.00;99.90;;;;;;5042181;28;19947;-87
2022/10/20 03:01:37;;;;;;;;;;;6.00;99.90;;;;;;5056227;28;20326;-87
2022/10/20 03:04:03;;;;;;;;;;;6.00;99.90;;;;;;5042052;28;19924;-87
2022/10/20 03:06:28;;;;;;;;;;;5.90;99.90;;;;;;5038895;28;20250;-87
2022/10/20 03:08:54;;;;;;;;;;;5.90;99.90;;;;;;5056333;28;19928;-87
2022/10/20 03:11:19;;;;;;;;;;;7.70;99.90;;;;;;5058519;28;20069;-86
2022/10/20 03:13:45;;;;;;;;;;;7.60;99.90;;;;;;5075545;28;19924;-87
2022/10/20 03:16:10;;;;;;;;;;;6.20;99.90;;;;;;5039354;28;19928;-86
2022/10/20 03:18:36;;;;;;;;;;;5.90;99.90;;;;;;5048673;28;19924;-87
2022/10/20 03:21:02;;;;;;;;;;;4.80;99.90;;;;;;5057962;28;20261;-87
2022/10/20 03:23:27;;;;;;;;;;;5.90;99.90;;;;;;5057642;28;19965;-87
2022/10/20 03:25:59;;;;;;;;;;;5.90;99.90;;;;;;5036705;28;20415;-87
2022/10/20 03:28:24;;;;;;;;;;;5.90;99.90;;;;;;5054833;28;19990;-87
2022/10/20 03:30:50;;;;;;;;;;;6.90;99.90;;;;;;5067826;28;19993;-87
2022/10/20 03:33:16;;;;;;;;;;;7.30;99.90;;;;;;5074539;28;19924;-87
2022/10/20 03:35:41;;;;;;;;;;;7.40;99.90;;;;;;5042184;28;19931;-88
2022/10/20 03:38:07;;;;;;;;;;;6.90;99.90;;;;;;5059061;28;19971;-87
2022/10/20 03:40:32;;;;;;;;;;;6.10;99.90;;;;;;5060441;28;20322;-87
2022/10/20 03:42:58;;;;;;;;;;;7.50;99.90;;;;;;5040716;28;19946;-86
2022/10/20 03:45:23;;;;;;;;;;;5.90;99.90;;;;;;5049253;28;19982;-84
2022/10/20 03:47:49;;;;;;;;;;;5.90;99.90;;;;;;5055489;28;19952;-84
2022/10/20 03:50:15;;;;;;;;;;;5.90;99.90;;;;;;5041269;28;20372;-84
2022/10/20 03:52:40;;;;;;;;;;;5.90;99.90;;;;;;5058124;28;19964;-84
2022/10/20 03:55:06;;;;;;;;;;;5.90;99.90;;;;;;5039645;28;19993;-84
2022/10/20 03:57:31;;;;;;;;;;;5.90;99.90;;;;;;5057509;28;20342;-84
2022/10/20 03:59:57;;;;;;;;;;;5.90;99.90;;;;;;5057798;28;20011;-84
2022/10/20 04:02:34;;;;;;;;;;;5.90;99.90;;;;;;5040575;28;20375;-84
2022/10/20 04:05:00;;;;;;;;;;;5.90;99.90;;;;;;5066556;28;20371;-85
2022/10/20 04:07:26;;;;;;;;;;;5.90;99.90;;;;;;5059539;28;19928;-84
2022/10/20 04:09:51;;;;;;;;;;;5.90;99.90;;;;;;5062173;28;19931;-84
2022/10/20 04:12:17;;;;;;;;;;;5.90;99.90;;;;;;5061737;28;19924;-84
2022/10/20 04:14:43;;;;;;;;;;;6.60;99.90;;;;;;5062110;28;19988;-83
2022/10/20 04:17:08;;;;;;;;;;;5.90;99.90;;;;;;5070684;28;20016;-84
2022/10/20 04:19:34;;;;;;;;;;;5.90;99.90;;;;;;5041305;28;19925;-84
2022/10/20 04:21:59;;;;;;;;;;;6.40;99.90;;;;;;5057480;28;19931;-84
2022/10/20 04:24:25;;;;;;;;;;;6.10;99.90;;;;;;5060929;28;19924;-85
2022/10/20 04:26:51;;;;;;;;;;;6.70;99.90;;;;;;5044819;28;19924;-84
2022/10/20 04:29:16;;;;;;;;;;;7.10;99.90;;;;;;5054328;28;19970;-84
2022/10/20 04:31:42;;;;;;;;;;;7.20;99.90;;;;;;5060492;28;19931;-84
2022/10/20 04:34:08;;;;;;;;;;;5.90;99.90;;;;;;5059602;28;19924;-84
2022/10/20 04:36:33;;;;;;;;;;;7.20;99.90;;;;;;5058684;28;19931;-85
2022/10/20 04:38:59;;;;;;;;;;;5.90;99.90;;;;;;5061385;28;19928;-84
2022/10/20 04:41:24;;;;;;;;;;;7.40;99.90;;;;;;5061264;28;20383;-85
2022/10/20 04:43:51;;;;;;;;;;;7.50;99.90;;;;;;5077599;28;19931;-84
2022/10/20 04:46:16;;;;;;;;;;;7.50;99.90;;;;;;5057112;28;19924;-84
2022/10/20 04:48:45;;;;;;;;;;;5.90;99.90;;;;;;5077414;28;19931;-84
2022/10/20 04:51:12;;;;;;;;;;;5.90;99.90;;;;;;5057615;28;19931;-84
2022/10/20 04:53:38;;;;;;;;;;;7.30;99.90;;;;;;5077082;28;19964;-85
2022/10/20 04:56:05;;;;;;;;;;;7.50;99.90;;;;;;5058912;28;20020;-84
2022/10/20 04:58:33;;;;;;;;;;;5.90;99.90;;;;;;5056346;28;19925;-84
2022/10/20 05:01:03;;;;;;;;;;;6.10;99.90;;;;;;5051356;28;20292;-84
2022/10/20 05:03:29;;;;;;;;;;;5.90;99.90;;;;;;5077104;28;19940;-84
2022/10/20 05:06:06;;;;;;;;;;;5.90;99.90;;;;;;5060240;28;19936;-84
2022/10/20 05:08:31;;;;;;;;;;;6.20;99.90;;;;;;5060588;28;19924;-83
2022/10/20 05:10:59;;;;;;;;;;;5.90;99.90;;;;;;5060424;28;19931;-84
2022/10/20 05:13:24;;;;;;;;;;;5.90;99.90;;;;;;5058630;28;20034;-84
2022/10/20 05:15:53;;;;;;;;;;;5.90;99.90;;;;;;5056409;28;20035;-84
2022/10/20 05:18:19;;;;;;;;;;;5.90;99.90;;;;;;5059222;28;19974;-85
2022/10/20 05:20:44;;;;;;;;;;;5.90;99.90;;;;;;5059986;28;20366;-84
2022/10/20 05:23:10;;;;;;;;;;;5.90;99.90;;;;;;5060298;28;19931;-84
2022/10/20 05:25:36;;;;;;;;;;;5.80;99.90;;;;;;5060145;28;20324;-87
2022/10/20 05:28:02;;;;;;;;;;;5.90;99.90;;;;;;5051824;28;19925;-86
2022/10/20 05:30:27;;;;;;;;;;;5.90;99.90;;;;;;5055902;28;20372;-87
2022/10/20 05:32:53;;;;;;;;;;;7.20;99.90;;;;;;5040839;28;20022;-87
2022/10/20 05:35:18;;;;;;;;;;;5.80;99.90;;;;;;5043373;28;19924;-87
2022/10/20 05:37:45;;;;;;;;;;;7.00;99.90;;;;;;5077037;28;20011;-87
2022/10/20 05:40:10;;;;;;;;;;;6.30;99.90;;;;;;5059532;28;19932;-86
2022/10/20 05:42:36;;;;;;;;;;;5.80;99.90;;;;;;5040125;28;20380;-87
2022/10/20 05:45:01;;;;;;;;;;;5.80;99.90;;;;;;5052177;28;19925;-86
2022/10/20 05:47:27;;;;;;;;;;;5.70;99.90;;;;;;5054677;28;19924;-87
2022/10/20 05:49:52;;;;;;;;;;;5.80;99.90;;;;;;5053029;28;19924;-86
2022/10/20 05:52:18;;;;;;;;;;;6.00;99.90;;;;;;5060076;28;19970;-85
2022/10/20 05:54:44;;;;;;;;;;;5.70;99.90;;;;;;5054562;28;20275;-87
2022/10/20 05:57:09;;;;;;;;;;;5.70;99.90;;;;;;5058120;28;19939;-87
2022/10/20 05:59:35;;;;;;;;;;;5.70;99.90;;;;;;5076626;28;19924;-90
2022/10/20 06:02:01;;;;;;;;;;;6.60;99.90;;;;;;5038738;28;19925;-87
2022/10/20 06:04:29;;;;;;;;;;;5.60;99.90;;;;;;5049164;28;19924;-90
2022/10/20 06:06:55;;;;;;;;;;;5.50;99.90;;;;;;5058080;28;20003;-86
2022/10/20 06:09:21;;;;;;;;;;;5.60;99.90;;;;;;5056234;28;19929;-86
2022/10/20 06:11:47;;;;;;;;;;;5.60;99.90;;;;;;5057306;28;19924;-87
2022/10/20 06:14:13;;;;;;;;;;;5.60;99.90;;;;;;5048558;28;20010;-85
2022/10/20 06:16:41;;;;;;;;;;;5.60;99.90;;;;;;5040000;28;20279;-88
2022/10/20 06:19:06;;;;;;;;;;;5.50;99.90;;;;;;5044545;28;20052;-87
2022/10/20 06:21:32;;;;;;;;;;;5.60;99.90;;;;;;5064962;28;20396;-88
2022/10/20 06:23:58;;;;;;;;;;;5.60;99.90;;;;;;5059075;28;19949;-88
2022/10/20 06:26:25;;;;;;;;;;;5.90;99.90;;;;;;5054572;28;20261;-87
2022/10/20 06:28:55;;;;;;;;;;;5.60;99.90;;;;;;5069969;28;19932;-86
2022/10/20 06:31:28;;;;;;;;;;;5.60;99.90;;;;;;5054459;28;19965;-86
2022/10/20 06:33:59;;;;;;;;;;;5.60;99.90;;;;;;5047135;28;19932;-89
2022/10/20 06:36:30;;;;;;;;;;;5.60;99.90;;;;;;5058673;28;19931;-89
2022/10/20 06:39:03;;;;;;;;;;;5.60;99.90;;;;;;5050363;28;20300;-88
2022/10/20 06:41:32;;;;;;;;;;;5.60;99.90;;;;;;5052942;28;19931;-91
2022/10/20 06:44:05;;;;;;;;;;;5.60;99.90;;;;;;5058338;28;19928;-89
2022/10/20 06:46:33;;;;;;;;;;;5.00;99.90;;;;;;5057248;28;19924;-89
2022/10/20 06:49:02;;;;;;;;;;;5.90;99.90;;;;;;5073265;28;19935;-90
2022/10/20 06:51:30;;;;;;;;;;;7.30;99.90;;;;;;5053594;28;19984;-88
2022/10/20 06:53:59;;;;;;;;;;;7.10;99.90;;;;;;5072363;28;20402;-89
2022/10/20 06:56:26;;;;;;;;;;;5.70;99.90;;;;;;5050210;28;19931;-88
2022/10/20 06:58:52;;;;;;;;;;;6.90;99.90;;;;;;5056492;28;19946;-89
2022/10/20 07:01:22;;;;;;;;;;;5.80;99.90;;;;;;5054155;28;19924;-90
2022/10/20 07:03:52;;;;;;;;;;;6.00;99.90;;;;;;5058382;28;19928;-88
2022/10/20 07:06:21;;;;;;;;;;;5.50;99.90;;;;;;5074529;28;19980;-88
2022/10/20 07:08:47;;;;;;;;;;;5.90;99.90;;;;;;5054141;28;20287;-89
2022/10/20 07:11:14;;;;;;;;;;;5.40;99.90;;;;;;5057629;28;19930;-89
2022/10/20 07:13:40;;;;;;;;;;;6.40;99.90;;;;;;5049333;28;19939;-88
2022/10/20 07:16:13;;;;;;;;;;;6.00;99.90;;;;;;5073310;28;19928;-88
2022/10/20 07:18:47;;;;;;;;;;;6.00;99.90;;;;;;5052969;28;20265;-88
2022/10/20 07:21:27;;;;;;;;;;;6.10;99.90;;;;;;5057469;28;19935;-87
2022/10/20 07:23:55;;;;;;;;;;;6.20;99.90;;;;;;5045775;28;19957;-87
2022/10/20 07:26:25;;;;;;;;;;;5.20;99.90;;;;;;5058265;28;20041;-87
2022/10/20 07:28:52;;;;;;;;;;;6.30;99.90;;;;;;5060509;28;19927;-87
2022/10/20 07:31:28;;;;;;;;;;;6.30;99.90;;;;;;5051427;28;19925;-86
2022/10/20 07:33:54;;;;;;;;;;;6.30;99.90;;;;;;5051064;28;20320;-86
2022/10/20 07:36:22;;;;;;;;;;;6.40;99.90;;;;;;5056186;28;19951;-88
2022/10/20 07:38:48;;;;;;;;;;;5.30;99.90;;;;;;5058014;28;20019;-88
2022/10/20 07:41:16;;;;;;;;;;;6.50;99.90;;;;;;5052938;28;19925;-87
2022/10/20 07:43:45;;;;;;;;;;;6.40;99.90;;;;;;5055989;28;20035;-89
2022/10/20 07:46:11;;;;;;;;;;;6.40;99.90;;;;;;5056617;28;20011;-88
2022/10/20 07:48:37;;;;;;;;;;;6.90;99.90;;;;;;5073846;28;19931;-88
2022/10/20 07:51:15;;;;;;;;;;;6.50;99.90;;;;;;5057479;28;19928;-87
2022/10/20 07:53:40;;;;;;;;;;;6.50;99.90;;;;;;5055905;28;19947;-86
2022/10/20 07:56:09;;;;;;;;;;;7.60;99.90;;;;;;5047368;28;19924;-89
2022/10/20 07:58:35;;;;;;;;;;;6.60;99.90;;;;;;5049977;28;19924;-90
2022/10/20 08:01:09;;;;;;;;;;;6.60;99.90;;;;;;5058269;28;20036;-89
2022/10/20 08:03:38;;;;;;;;;;;6.60;99.90;;;;;;5055069;28;19929;-87
2022/10/20 08:06:12;;;;;;;;;;;6.70;99.90;;;;;;5049913;28;20469;-89
2022/10/20 08:08:38;;;;;;;;;;;6.60;99.90;;;;;;5054432;28;19924;-90
2022/10/20 08:11:07;;;;;;;;;;;6.30;99.90;;;;;;5053405;28;19931;-90
2022/10/20 08:13:35;;;;;;;;;;;7.10;99.90;;;;;;5050378;28;19925;-90
2022/10/20 08:16:01;;;;;;;;;;;7.10;99.90;;;;;;5057853;28;19928;-89
2022/10/20 08:18:27;;;;;;;;;;;7.00;99.90;;;;;;5051942;28;20019;-88
2022/10/20 08:20:53;;;;;;;;;;;7.00;99.90;;;;;;5047880;28;19964;-88
2022/10/20 08:23:19;;;;;;;;;;;7.30;99.90;;;;;;5045826;28;19984;-88
2022/10/20 08:25:47;;;;;;;;;;;7.20;99.90;;;;;;5047512;28;20369;-88
2022/10/20 08:28:15;;;;;;;;;;;7.10;99.90;;;;;;5044491;28;19924;-87
2022/10/20 08:30:40;;;;;;;;;;;7.20;99.90;;;;;;5063148;28;19937;-87
2022/10/20 08:33:06;;;;;;;;;;;7.30;99.90;;;;;;5042879;28;19924;-89
2022/10/20 08:35:37;;;;;;;;;;;7.40;99.90;;;;;;5045248;28;19957;-89
2022/10/20 08:38:07;;;;;;;;;;;7.40;99.90;;;;;;5043643;28;19979;-89
2022/10/20 08:43:31;;;;;;;;;;;7.50;99.90;;;;;;5064468;28;19940;-88
2022/10/20 08:49:12;;;;;;;;;;;7.70;99.90;;;;;;5071744;28;20005;-88
2022/10/20 08:51:38;;;;;;;;;;;7.90;99.90;;;;;;5047288;28;19932;-87
2022/10/20 08:54:13;;;;;;;;;;;7.80;99.90;;;;;;5046836;28;20292;-88
2022/10/20 08:56:49;;;;;;;;;;;7.80;99.90;;;;;;5053129;28;20014;-88
2022/10/20 08:59:32;;;;;;;;;;;8.10;99.90;;;;;;5054574;28;19924;-88
2022/10/20 09:01:58;;;;;;;;;;;8.00;99.90;;;;;;5047546;28;19924;-88
2022/10/20 09:04:40;;;;;;;;;;;8.00;99.90;;;;;;5053724;28;19924;-88
2022/10/20 09:07:16;;;;;;;;;;;8.00;99.90;;;;;;5053895;28;19925;-87
2022/10/20 09:09:42;;;;;;;;;;;7.90;99.90;;;;;;5054683;28;19932;-86
2022/10/20 09:12:11;;;;;;;;;;;8.20;99.90;;;;;;5047913;28;19932;-87
2022/10/20 09:14:37;;;;;;;;;;;8.30;99.90;;;;;;5050967;28;19924;-89
2022/10/20 09:17:13;;;;;;;;;;;8.50;99.90;;;;;;5051771;28;20347;-88
2022/10/20 09:19:41;;;;;;;;;;;8.50;99.90;;;;;;5054629;28;19931;-87
2022/10/20 09:22:10;;;;;;;;;;;8.50;99.90;;;;;;5049683;28;19932;-87
2022/10/20 09:24:37;;;;;;;;;;;8.50;99.90;;;;;;5050629;28;19925;-88
2022/10/20 09:27:23;;;;;;;;;;;8.60;99.90;;;;;;5053157;28;19925;-87
2022/10/20 09:29:49;;;;;;;;;;;9.60;99.90;;;;;;5046188;28;19931;-86
2022/10/20 09:32:44;;;;;;;;;;;8.70;99.90;;;;;;5064799;28;19933;-87
2022/10/20 09:35:16;;;;;;;;;;;8.70;99.90;;;;;;5054104;28;19975;-87
2022/10/20 09:37:45;;;;;;;;;;;8.10;99.90;;;;;;5068206;28;19981;-87
2022/10/20 09:40:45;;;;;;;;;;;8.90;99.90;;;;;;5054385;28;20011;-86
2022/10/20 09:43:15;;;;;;;;;;;8.60;99.90;;;;;;5070623;28;19932;-88
2022/10/20 09:46:06;;;;;;;;;;;9.20;99.90;;;;;;5052732;28;19925;-89
2022/10/20 09:48:46;;;;;;;;;;;7.60;99.90;;;;;;5050843;28;19925;-89
2022/10/20 09:51:37;;;;;;;;;;;7.70;99.90;;;;;;5048782;28;19935;-90
2022/10/20 09:54:06;;;;;;;;;;;9.20;99.90;;;;;;5068355;28;19924;-86
2022/10/20 09:56:36;;;;;;;;;;;9.10;99.90;;;;;;5053363;28;20027;-89
2022/10/20 09:59:04;;;;;;;;;;;8.50;99.90;;;;;;5049854;28;19976;-88
2022/10/20 10:01:33;;;;;;;;;;;9.20;99.90;;;;;;5051869;28;20586;-89
2022/10/20 10:04:00;;;;;;;;;;;9.50;99.90;;;;;;5033466;28;19979;-87
2022/10/20 10:06:31;;;;;;;;;;;8.80;99.90;;;;;;5075525;28;19933;-88
2022/10/20 10:08:59;;;;;;;;;;;9.70;99.90;;;;;;5069802;28;19928;-87
2022/10/20 10:11:33;;;;;;;;;;;9.70;99.90;;;;;;5049939;28;20368;-87
2022/10/20 10:14:02;;;;;;;;;;;9.60;99.90;;;;;;5057831;28;19932;-88
2022/10/20 10:16:45;;;;;;;;;;;9.90;99.90;;;;;;5036611;28;19925;-88
2022/10/20 10:19:16;;;;;;;;;;;9.90;99.90;;;;;;5050185;28;20327;-87
2022/10/20 10:21:44;;;;;;;;;;;8.90;99.90;;;;;;5053520;28;19997;-87
2022/10/20 10:24:28;;;;;;;;;;;10.00;99.90;;;;;;5052534;28;19978;-87
2022/10/20 10:26:54;;;;;;;;;;;10.10;99.90;;;;;;5048769;28;19979;-85
2022/10/20 10:29:28;;;;;;;;;;;10.30;99.90;;;;;;5068423;28;19983;-85
2022/10/20 10:32:01;;;;;;;;;;;10.20;99.90;;;;;;5050542;28;19981;-85
2022/10/20 10:34:45;;;;;;;;;;;10.30;99.90;;;;;;5068821;28;19924;-87
2022/10/20 10:37:12;;;;;;;;;;;10.30;99.90;;;;;;5045182;28;19928;-86
2022/10/20 10:39:38;;;;;;;;;;;10.40;99.90;;;;;;5053127;28;20344;-90
2022/10/20 10:42:23;;;;;;;;;;;10.50;99.90;;;;;;5034547;28;19925;-85
2022/10/20 10:44:49;;;;;;;;;;;10.60;99.90;;;;;;5050949;28;19929;-85
2022/10/20 10:47:21;;;;;;;;;;;10.80;99.90;;;;;;5052704;28;19986;-85
2022/10/20 10:50:04;;;;;;;;;;;10.90;99.90;;;;;;5052690;28;20319;-85
2022/10/20 10:52:30;;;;;;;;;;;11.10;99.90;;;;;;5069987;28;19928;-85
2022/10/20 10:55:02;;;;;;;;;;;11.20;99.90;;;;;;5049595;28;19929;-87
2022/10/20 10:57:46;;;;;;;;;;;11.30;99.90;;;;;;5050324;28;19928;-87
2022/10/20 11:00:18;;;;;;;;;;;11.30;99.90;;;;;;5049183;28;19934;-86
2022/10/20 11:02:52;;;;;;;;;;;11.40;99.90;;;;;;5060535;28;19928;-88
2022/10/20 11:05:17;;;;;;;;;;;11.40;99.90;;;;;;5054713;28;19924;-88
2022/10/20 11:07:58;;;;;;;;;;;11.60;99.90;;;;;;5054261;28;19925;-88
2022/10/20 11:10:26;;;;;;;;;;;11.60;99.90;;;;;;5050055;28;19994;-86
2022/10/20 11:13:13;;;;;;;;;;;11.70;99.90;;;;;;5048406;28;19928;-86
2022/10/20 11:15:44;;;;;;;;;;;11.70;99.90;;;;;;5083190;28;20013;-86
2022/10/20 11:18:10;;;;;;;;;;;11.70;99.90;;;;;;5045498;28;20490;-85
2022/10/20 11:20:40;;;;;;;;;;;11.80;99.90;;;;;;5053775;28;20007;-87
2022/10/20 11:23:11;;;;;;;;;;;11.80;99.90;;;;;;5069814;28;19924;-86
2022/10/20 11:25:37;;;;;;;;;;;11.90;99.90;;;;;;5052414;28;19924;-86
2022/10/20 11:28:04;;;;;;;;;;;13.10;99.90;;;;;;5047237;28;19924;-87
2022/10/20 11:30:32;;;;;;;;;;;12.00;99.90;;;;;;5069655;28;19994;-85
2022/10/20 11:33:11;;;;;;;;;;;12.00;99.90;;;;;;5051920;28;19947;-87
2022/10/20 11:35:37;;;;;;;;;;;12.10;99.90;;;;;;5050862;28;20317;-86
2022/10/20 11:38:06;;;;;;;;;;;12.10;99.90;;;;;;5050246;28;19933;-89
2022/10/20 11:40:36;;;;;;;;;;;12.10;99.90;;;;;;5069434;28;20364;-87
2022/10/20 11:43:20;;;;;;;;;;;12.10;99.90;;;;;;5051965;28;19933;-88
2022/10/20 11:46:05;;;;;;;;;;;12.10;99.90;;;;;;5051089;28;19933;-90
2022/10/20 11:48:39;;;;;;;;;;;12.20;99.90;;;;;;5047452;28;19924;-89
2022/10/20 11:51:14;;;;;;;;;;;12.20;99.90;;;;;;5052556;28;19924;-88
2022/10/20 11:53:59;;;;;;;;;;;12.30;99.90;;;;;;5054585;28;19933;-88
2022/10/20 11:56:36;;;;;;;;;;;12.30;99.90;;;;;;5053441;28;19925;-87
2022/10/20 11:59:21;;;;;;;;;;;12.30;99.90;;;;;;5054135;28;19933;-88
2022/10/20 12:02:05;;;;;;;;;;;12.40;99.90;;;;;;5046984;28;19924;-87
2022/10/20 12:04:37;;;;;;;;;;;12.40;99.90;;;;;;5048198;28;20015;-86
2022/10/20 12:07:06;;;;;;;;;;;12.40;99.90;;;;;;5048197;28;20380;-88
2022/10/20 12:09:44;;;;;;;;;;;12.40;99.90;;;;;;5047449;28;19978;-89
2022/10/20 12:12:18;;;;;;;;;;;12.40;99.90;;;;;;5067635;28;19928;-88
2022/10/20 12:14:57;;;;;;;;;;;12.50;99.90;;;;;;5050860;28;19925;-89
2022/10/20 12:17:35;;;;;;;;;;;12.40;99.90;;;;;;5046259;28;20061;-87
2022/10/20 12:20:19;;;;;;;;;;;12.40;99.90;;;;;;5035256;28;19992;-87
2022/10/20 12:23:03;;;;;;;;;;;12.40;99.90;;;;;;5083612;28;20265;-87
2022/10/20 12:25:29;;;;;;;;;;;12.30;99.90;;;;;;5069367;28;19924;-86
2022/10/20 12:28:13;;;;;;;;;;;12.10;99.90;;;;;;5052902;28;19928;-85
2022/10/20 12:30:38;;;;;;;;;;;12.20;99.90;;;;;;5050684;28;19981;-86
2022/10/20 12:33:10;;;;;;;;;;;12.30;99.90;;;;;;5069943;28;19936;-88
2022/10/20 12:35:54;;;;;;;;;;;12.20;99.90;;;;;;5052473;28;19931;-87
2022/10/20 12:38:23;;;;;;;;;;;12.10;99.90;;;;;;5055110;28;20348;-87
2022/10/20 12:40:52;;;;;;;;;;;12.20;99.90;;;;;;5050802;28;19947;-87
2022/10/20 12:43:25;;;;;;;;;;;12.10;99.90;;;;;;5073809;28;20384;-87
2022/10/20 12:45:51;;;;;;;;;;;12.10;99.90;;;;;;5057491;28;19924;-87
2022/10/20 12:48:21;;;;;;;;;;;10.80;99.90;;;;;;5044316;28;19939;-87
2022/10/20 12:50:48;;;;;;;;;;;12.10;99.90;;;;;;5049003;28;19975;-86
2022/10/20 12:53:28;;;;;;;;;;;12.10;99.90;;;;;;5027136;28;19924;-88
2022/10/20 12:55:57;;;;;;;;;;;12.10;99.90;;;;;;5047572;28;19928;-87
2022/10/20 12:58:22;;;;;;;;;;;12.00;99.90;;;;;;5053661;28;19925;-86
2022/10/20 13:00:48;;;;;;;;;;;12.00;99.90;;;;;;5052492;28;20260;-86
2022/10/20 13:03:32;;;;;;;;;;;11.90;99.90;;;;;;5052839;28;20320;-86
2022/10/20 13:05:58;;;;;;;;;;;11.90;99.90;;;;;;5053784;28;19925;-85
2022/10/20 13:08:28;;;;;;;;;;;11.80;99.90;;;;;;5076138;28;19925;-86
2022/10/20 13:10:55;;;;;;;;;;;11.80;99.90;;;;;;5070938;28;20023;-86
2022/10/20 13:13:21;;;;;;;;;;;11.90;99.90;;;;;;5072489;28;19931;-86
2022/10/20 13:15:51;;;;;;;;;;;11.70;99.90;;;;;;5054583;28;19925;-86
2022/10/20 13:18:26;;;;;;;;;;;11.70;99.90;;;;;;5050367;28;19975;-87
2022/10/20 13:20:54;;;;;;;;;;;11.70;99.90;;;;;;5054942;28;19943;-87
2022/10/20 13:23:32;;;;;;;;;;;11.60;99.90;;;;;;5055258;28;20007;-86
2022/10/20 13:26:02;;;;;;;;;;;11.60;99.90;;;;;;5048318;28;20166;-87
2022/10/20 13:28:29;;;;;;;;;;;11.60;99.90;;;;;;5052851;28;19932;-86
2022/10/20 13:31:04;;;;;;;;;;;11.60;99.90;;;;;;5041475;28;19982;-85
2022/10/20 13:33:33;;;;;;;;;;;11.50;99.90;;;;;;5066040;28;19928;-86
2022/10/20 13:36:01;;;;;;;;;;;11.50;99.90;;;;;;5048704;28;20028;-86
2022/10/20 13:38:35;;;;;;;;;;;11.50;99.90;;;;;;5050476;28;19924;-86
2022/10/20 13:41:30;;;;;;;;;;;11.40;99.90;;;;;;5041407;28;19982;-86
2022/10/20 13:44:02;;;;;;;;;;;11.50;99.90;;;;;;5036427;28;19970;-87
2022/10/20 13:46:55;;;;;;;;;;;11.50;99.90;;;;;;5049059;28;19935;-88
2022/10/20 13:49:35;;;;;;;;;;;11.50;99.90;;;;;;5044625;28;19931;-89
2022/10/20 13:52:04;;;;;;;;;;;11.40;99.90;;;;;;5051466;28;20287;-88
2022/10/20 13:54:34;;;;;;;;;;;11.50;99.90;;;;;;5071481;28;20364;-87
2022/10/20 13:57:00;;;;;;;;;;;9.90;99.90;;;;;;5053179;28;19928;-88
2022/10/20 13:59:29;;;;;;;;;;;11.40;99.90;;;;;;5053718;28;19936;-89
2022/10/20 14:01:59;;;;;;;;;;;11.50;99.90;;;;;;5054390;28;19986;-88
2022/10/20 14:04:34;;;;;;;;;;;11.40;99.90;;;;;;5056472;28;20428;-90
2022/10/20 14:07:14;;;;;;;;;;;;;;;;;;;;;
2022/10/20 14:09:45;;;;;;;;;;;11.30;99.90;;;;;;5072983;28;20295;-90
2022/10/20 14:12:25;;;;;;;;;;;11.50;99.90;;;;;;5047718;28;19943;-90
2022/10/20 14:14:53;;;;;;;;;;;11.40;99.90;;;;;;5055184;28;19929;-87
2022/10/20 14:17:29;;;;;;;;;;;11.30;99.90;;;;;;5048582;28;19928;-88
2022/10/20 14:20:28;;;;;;;;;;;11.50;99.90;;;;;;5070090;28;19931;-87
2022/10/20 14:22:54;;;;;;;;;;;11.30;99.90;;;;;;5042601;28;19939;-87
2022/10/20 14:25:20;;;;;;;;;;;11.50;99.90;;;;;;5067138;28;20283;-88
2022/10/20 14:27:50;;;;;;;;;;;11.10;99.90;;;;;;5053867;28;20019;-90
2022/10/20 14:30:35;;;;;;;;;;;11.50;99.90;;;;;;5054871;28;20291;-90
2022/10/20 14:33:06;;;;;;;;;;;11.20;99.90;;;;;;5056193;28;19925;-87
2022/10/20 14:35:40;;;;;;;;;;;11.30;99.90;;;;;;5056594;28;19971;-89
2022/10/20 14:38:17;;;;;;;;;;;11.40;99.90;;;;;;5074165;28;19924;-88
2022/10/20 14:40:48;;;;;;;;;;;11.20;99.90;;;;;;5071594;28;20395;-88
2022/10/20 14:43:14;;;;;;;;;;;11.30;99.90;;;;;;5055214;28;20400;-87
2022/10/20 14:45:40;;;;;;;;;;;11.80;99.90;;;;;;5055882;28;19928;-89
2022/10/20 14:48:07;;;;;;;;;;;11.20;99.90;;;;;;5070169;28;19963;-88
2022/10/20 14:50:34;;;;;;;;;;;11.40;99.90;;;;;;5053362;28;19924;-88